sensor_id;sensor_type;location;lat;lon;timestamp;pressure;altitude;pressure_sealevel;temperature;humidity
19890;BME280;10107;51.198;6.824;2023-09-18T00:01:58;-21823.03;;;19.41;100.00
19890;BME280;10107;51.198;6.824;2023-09-18T00:06:00;-21822.00;;;19.37;100.00
19890;BME280;10107;51.198;6.824;2023-09-18T00:10:03;-21821.06;;;19.33;100.00
19890;BME280;10107;51.198;6.824;2023-09-18T00:14:04;-21820.03;;;19.29;100.00
19890;BME280;10107;51.198;6.824;2023-09-18T00:18:06;-21818.84;;;19.25;100.00
19890;BME280;10107;51.198;6.824;2023-09-18T00:22:08;-21817.81;;;19.21;100.00
19890;BME280;10107;51.198;6.824;2023-09-18T00:26:10;-21816.78;;;19.16;100.00
19890;BME280;10107;51.198;6.824;2023-09-18T00:30:15;-21815.97;;;19.13;100.00
19890;BME280;10107;51.198;6.824;2023-09-18T00:34:16;-21815.34;;;19.11;100.00
19890;BME280;10107;51.198;6.824;2023-09-18T00:38:18;-21814.69;;;19.08;100.00
19890;BME280;10107;51.198;6.824;2023-09-18T00:42:21;-21814.69;;;19.08;100.00
19890;BME280;10107;51.198;6.824;2023-09-18T00:46:22;-21814.28;;;19.07;100.00
19890;BME280;10107;51.198;6.824;2023-09-18T00:50:24;-21814.28;;;19.07;100.00
19890;BME280;10107;51.198;6.824;2023-09-18T00:54:26;-21814.81;;;19.09;100.00
19890;BME280;10107;51.198;6.824;2023-09-18T00:58:29;-21814.41;;;19.07;100.00
19890;BME280;10107;51.198;6.824;2023-09-18T01:02:31;-21813.91;;;19.05;100.00
19890;BME280;10107;51.198;6.824;2023-09-18T01:06:33;-21812.47;;;18.99;100.00
19890;BME280;10107;51.198;6.824;2023-09-18T01:10:36;-21811.81;;;18.97;100.00
19890;BME280;10107;51.198;6.824;2023-09-18T01:14:44;-21810.63;;;18.92;100.00
19890;BME280;10107;51.198;6.824;2023-09-18T01:18:50;-21810.09;;;18.90;100.00
19890;BME280;10107;51.198;6.824;2023-09-18T01:22:53;-21809.72;;;18.89;100.00
19890;BME280;10107;51.198;6.824;2023-09-18T01:26:54;-21809.72;;;18.89;100.00
19890;BME280;10107;51.198;6.824;2023-09-18T01:30:56;-21809.97;;;18.90;100.00
19890;BME280;10107;51.198;6.824;2023-09-18T01:34:59;-21809.59;;;18.88;100.00
19890;BME280;10107;51.198;6.824;2023-09-18T01:39:02;-21809.44;;;18.88;100.00
19890;BME280;10107;51.198;6.824;2023-09-18T01:43:05;-21809.31;;;18.87;100.00
19890;BME280;10107;51.198;6.824;2023-09-18T01:47:08;-21809.06;;;18.86;100.00
19890;BME280;10107;51.198;6.824;2023-09-18T01:51:13;-21808.81;;;18.85;100.00
19890;BME280;10107;51.198;6.824;2023-09-18T01:55:15;-21808.41;;;18.84;100.00
19890;BME280;10107;51.198;6.824;2023-09-18T01:59:17;-21808.41;;;18.84;100.00
19890;BME280;10107;51.198;6.824;2023-09-18T02:03:18;-21808.28;;;18.83;100.00
19890;BME280;10107;51.198;6.824;2023-09-18T02:07:21;-21808.41;;;18.84;100.00
19890;BME280;10107;51.198;6.824;2023-09-18T02:11:24;-21808.41;;;18.84;100.00
19890;BME280;10107;51.198;6.824;2023-09-18T02:15:25;-21808.53;;;18.84;100.00
19890;BME280;10107;51.198;6.824;2023-09-18T02:19:27;-21808.66;;;18.85;100.00
19890;BME280;10107;51.198;6.824;2023-09-18T02:23:28;-21809.19;;;18.87;100.00
19890;BME280;10107;51.198;6.824;2023-09-18T02:27:31;-21809.97;;;18.90;100.00
19890;BME280;10107;51.198;6.824;2023-09-18T02:31:32;-21810.75;;;18.93;100.00
19890;BME280;10107;51.198;6.824;2023-09-18T02:35:34;-21812.06;;;18.98;100.00
19890;BME280;10107;51.198;6.824;2023-09-18T02:39:35;-21814.94;;;19.09;100.00
19890;BME280;10107;51.198;6.824;2023-09-18T02:43:38;-21818.06;;;19.22;100.00
19890;BME280;10107;51.198;6.824;2023-09-18T02:47:39;-21822.50;;;19.39;100.00
19890;BME280;10107;51.198;6.824;2023-09-18T02:51:42;-21827.47;;;19.58;100.00
19890;BME280;10107;51.198;6.824;2023-09-18T02:55:43;-21832.44;;;19.78;100.00
19890;BME280;10107;51.198;6.824;2023-09-18T02:59:46;-21836.34;;;19.93;100.00
19890;BME280;10107;51.198;6.824;2023-09-18T03:03:48;-21839.47;;;20.06;100.00
19890;BME280;10107;51.198;6.824;2023-09-18T03:07:49;-21840.78;;;20.11;100.00
19890;BME280;10107;51.198;6.824;2023-09-18T03:11:51;-21840.78;;;20.11;100.00
19890;BME280;10107;51.198;6.824;2023-09-18T03:15:54;-21840.63;;;20.10;100.00
19890;BME280;10107;51.198;6.824;2023-09-18T03:19:57;-21840.25;;;20.09;100.00
19890;BME280;10107;51.198;6.824;2023-09-18T03:23:58;-21840.25;;;20.09;100.00
19890;BME280;10107;51.198;6.824;2023-09-18T03:28:00;-21840.38;;;20.09;100.00
19890;BME280;10107;51.198;6.824;2023-09-18T03:32:06;-21840.00;;;20.08;100.00
19890;BME280;10107;51.198;6.824;2023-09-18T03:36:12;-21839.22;;;20.05;100.00
19890;BME280;10107;51.198;6.824;2023-09-18T03:40:15;-21838.44;;;20.02;100.00
19890;BME280;10107;51.198;6.824;2023-09-18T03:44:16;-21837.13;;;19.96;100.00
19890;BME280;10107;51.198;6.824;2023-09-18T03:48:20;-21835.56;;;19.90;100.00
19890;BME280;10107;51.198;6.824;2023-09-18T03:52:22;-21833.72;;;19.83;100.00
19890;BME280;10107;51.198;6.824;2023-09-18T03:56:25;-21833.34;;;19.82;100.00
19890;BME280;10107;51.198;6.824;2023-09-18T04:00:27;-21834.25;;;19.85;100.00
19890;BME280;10107;51.198;6.824;2023-09-18T04:04:30;-21835.44;;;19.90;100.00
19890;BME280;10107;51.198;6.824;2023-09-18T04:08:32;-21837.38;;;19.97;100.00
19890;BME280;10107;51.198;6.824;2023-09-18T04:12:34;-21838.94;;;20.04;100.00
19890;BME280;10107;51.198;6.824;2023-09-18T04:16:36;-21840.25;;;20.09;100.00
19890;BME280;10107;51.198;6.824;2023-09-18T04:20:41;-21841.28;;;20.13;100.00
19890;BME280;10107;51.198;6.824;2023-09-18T04:24:43;-21841.94;;;20.15;100.00
19890;BME280;10107;51.198;6.824;2023-09-18T04:28:44;-21842.47;;;20.17;100.00
19890;BME280;10107;51.198;6.824;2023-09-18T04:32:46;-21842.34;;;20.17;100.00
19890;BME280;10107;51.198;6.824;2023-09-18T04:36:49;-21841.16;;;20.12;100.00
19890;BME280;10107;51.198;6.824;2023-09-18T04:40:57;-21840.00;;;20.08;100.00
19890;BME280;10107;51.198;6.824;2023-09-18T04:44:58;-21840.38;;;20.09;100.00
19890;BME280;10107;51.198;6.824;2023-09-18T04:49:00;-21839.06;;;20.04;100.00
19890;BME280;10107;51.198;6.824;2023-09-18T04:53:05;-21838.16;;;20.01;100.00
19890;BME280;10107;51.198;6.824;2023-09-18T04:57:06;-21837.78;;;19.99;100.00
19890;BME280;10107;51.198;6.824;2023-09-18T05:01:08;-21837.91;;;20.00;100.00
19890;BME280;10107;51.198;6.824;2023-09-18T05:05:12;-21838.28;;;20.01;100.00
19890;BME280;10107;51.198;6.824;2023-09-18T05:09:15;-21839.47;;;20.06;100.00
19890;BME280;10107;51.198;6.824;2023-09-18T05:13:17;-21839.72;;;20.07;100.00
19890;BME280;10107;51.198;6.824;2023-09-18T05:17:18;-21839.72;;;20.07;100.00
19890;BME280;10107;51.198;6.824;2023-09-18T05:21:19;-21839.06;;;20.04;100.00
19890;BME280;10107;51.198;6.824;2023-09-18T05:25:27;-21838.81;;;20.03;100.00
19890;BME280;10107;51.198;6.824;2023-09-18T05:29:29;-21838.03;;;20.00;100.00
19890;BME280;10107;51.198;6.824;2023-09-18T05:33:30;-21837.63;;;19.98;100.00
19890;BME280;10107;51.198;6.824;2023-09-18T05:37:32;-21838.28;;;20.01;100.00
19890;BME280;10107;51.198;6.824;2023-09-18T05:41:35;-21838.94;;;20.04;100.00
19890;BME280;10107;51.198;6.824;2023-09-18T05:45:36;-21839.59;;;20.06;100.00
19890;BME280;10107;51.198;6.824;2023-09-18T05:49:38;-21841.03;;;20.12;100.00
19890;BME280;10107;51.198;6.824;2023-09-18T05:53:39;-21841.94;;;20.15;100.00
19890;BME280;10107;51.198;6.824;2023-09-18T05:57:42;-21843.38;;;20.21;100.00
19890;BME280;10107;51.198;6.824;2023-09-18T06:01:43;-21844.28;;;20.25;100.00
19890;BME280;10107;51.198;6.824;2023-09-18T06:05:45;-21844.94;;;20.27;100.00
19890;BME280;10107;51.198;6.824;2023-09-18T06:09:46;-21846.13;;;20.32;100.00
19890;BME280;10107;51.198;6.824;2023-09-18T06:13:49;-21846.75;;;20.34;100.00
19890;BME280;10107;51.198;6.824;2023-09-18T06:17:51;-21848.59;;;20.42;100.00
19890;BME280;10107;51.198;6.824;2023-09-18T06:21:52;-21849.75;;;20.46;100.00
19890;BME280;10107;51.198;6.824;2023-09-18T06:25:53;-21850.03;;;20.47;100.00
19890;BME280;10107;51.198;6.824;2023-09-18T06:29:57;-21854.44;;;20.65;100.00
19890;BME280;10107;51.198;6.824;2023-09-18T06:33:59;-21857.44;;;20.76;100.00
19890;BME280;10107;51.198;6.824;2023-09-18T06:38:00;-21858.75;;;20.82;100.00
19890;BME280;10107;51.198;6.824;2023-09-18T06:42:02;-21860.31;;;20.88;100.00
19890;BME280;10107;51.198;6.824;2023-09-18T06:46:06;-21862.91;;;20.98;100.00
19890;BME280;10107;51.198;6.824;2023-09-18T06:50:08;-21865.91;;;21.10;100.00
19890;BME280;10107;51.198;6.824;2023-09-18T06:54:12;-21868.63;;;21.21;100.00
19890;BME280;10107;51.198;6.824;2023-09-18T06:58:13;-21874.09;;;21.42;100.00
19890;BME280;10107;51.198;6.824;2023-09-18T07:02:16;-21876.84;;;21.53;100.00
19890;BME280;10107;51.198;6.824;2023-09-18T07:06:17;-21881.38;;;21.71;100.00
19890;BME280;10107;51.198;6.824;2023-09-18T07:10:20;-21893.06;;;22.17;100.00
19890;BME280;10107;51.198;6.824;2023-09-18T07:14:21;-21894.25;;;22.22;100.00
19890;BME280;10107;51.198;6.824;2023-09-18T07:18:24;-21891.38;;;22.10;100.00
19890;BME280;10107;51.198;6.824;2023-09-18T07:22:26;-21886.44;;;21.91;100.00
19890;BME280;10107;51.198;6.824;2023-09-18T07:26:27;-21883.84;;;21.81;100.00
19890;BME280;10107;51.198;6.824;2023-09-18T07:30:29;-21882.94;;;21.77;100.00
19890;BME280;10107;51.198;6.824;2023-09-18T07:34:31;-21885.53;;;21.87;100.00
19890;BME280;10107;51.198;6.824;2023-09-18T07:38:33;-21885.94;;;21.89;100.00
19890;BME280;10107;51.198;6.824;2023-09-18T07:42:34;-21884.75;;;21.84;100.00
19890;BME280;10107;51.198;6.824;2023-09-18T07:46:36;-21884.75;;;21.84;100.00
19890;BME280;10107;51.198;6.824;2023-09-18T07:50:41;-21885.16;;;21.86;100.00
19890;BME280;10107;51.198;6.824;2023-09-18T07:54:44;-21887.88;;;21.97;100.00
19890;BME280;10107;51.198;6.824;2023-09-18T07:58:45;-21890.09;;;22.05;100.00
19890;BME280;10107;51.198;6.824;2023-09-18T08:02:47;-21887.09;;;21.93;100.00
19890;BME280;10107;51.198;6.824;2023-09-18T08:06:51;-21891.38;;;22.10;100.00
19890;BME280;10107;51.198;6.824;2023-09-18T08:10:53;-21894.38;;;22.22;100.00
19890;BME280;10107;51.198;6.824;2023-09-18T08:14:54;-21890.34;;;22.06;100.00
19890;BME280;10107;51.198;6.824;2023-09-18T08:19:00;-21884.25;;;21.82;100.00
19890;BME280;10107;51.198;6.824;2023-09-18T08:23:03;-21885.81;;;21.88;100.00
19890;BME280;10107;51.198;6.824;2023-09-18T08:27:05;-21902.03;;;22.52;100.00
19890;BME280;10107;51.198;6.824;2023-09-18T08:31:06;-21906.19;;;22.69;100.00
19890;BME280;10107;51.198;6.824;2023-09-18T08:35:08;-21905.16;;;22.65;100.00
19890;BME280;10107;51.198;6.824;2023-09-18T08:39:11;-21903.97;;;22.60;100.00
19890;BME280;10107;51.198;6.824;2023-09-18T08:43:14;-21902.28;;;22.53;100.00
19890;BME280;10107;51.198;6.824;2023-09-18T08:47:16;-21907.22;;;22.73;100.00
19890;BME280;10107;51.198;6.824;2023-09-18T08:51:18;-21913.19;;;22.97;100.00
19890;BME280;10107;51.198;6.824;2023-09-18T08:55:21;-21918.91;;;23.19;100.00
19890;BME280;10107;51.198;6.824;2023-09-18T08:59:24;-21926.41;;;23.49;98.41
19890;BME280;10107;51.198;6.824;2023-09-18T09:03:26;-21929.00;;;23.59;97.39
19890;BME280;10107;51.198;6.824;2023-09-18T09:07:28;-21939.75;;;24.02;94.90
19890;BME280;10107;51.198;6.824;2023-09-18T09:11:32;-21960.31;;;24.83;88.15
19890;BME280;10107;51.198;6.824;2023-09-18T09:15:37;-21966.91;;;25.09;86.54
19890;BME280;10107;51.198;6.824;2023-09-18T09:19:46;-21952.16;;;24.51;86.58
19890;BME280;10107;51.198;6.824;2023-09-18T09:23:47;-21944.16;;;24.19;89.47
19890;BME280;10107;51.198;6.824;2023-09-18T09:27:54;-21950.59;;;24.45;89.39
19890;BME280;10107;51.198;6.824;2023-09-18T09:31:56;-21957.72;;;24.73;88.51
19890;BME280;10107;51.198;6.824;2023-09-18T09:35:57;-21960.19;;;24.83;87.87
19890;BME280;10107;51.198;6.824;2023-09-18T09:40:02;-21952.94;;;24.54;88.38
19890;BME280;10107;51.198;6.824;2023-09-18T09:44:10;-21948.94;;;24.38;88.80
19890;BME280;10107;51.198;6.824;2023-09-18T09:48:12;-21956.81;;;24.69;88.51
19890;BME280;10107;51.198;6.824;2023-09-18T09:52:17;-21977.75;;;25.53;84.57
19890;BME280;10107;51.198;6.824;2023-09-18T09:56:21;-21977.75;;;25.53;83.22
19890;BME280;10107;51.198;6.824;2023-09-18T10:00:24;-21984.56;;;25.80;83.14
19890;BME280;10107;51.198;6.824;2023-09-18T10:04:31;-22023.34;;;27.34;75.07
19890;BME280;10107;51.198;6.824;2023-09-18T10:08:33;-22037.47;;;27.91;71.62
19890;BME280;10107;51.198;6.824;2023-09-18T10:12:35;-22031.69;;;27.68;70.66
19890;BME280;10107;51.198;6.824;2023-09-18T10:16:39;-22046.34;;;28.26;67.42
19890;BME280;10107;51.198;6.824;2023-09-18T10:20:41;-22086.06;;;29.85;63.10
19890;BME280;10107;51.198;6.824;2023-09-18T10:24:43;-22142.34;;;32.11;57.01
19890;BME280;10107;51.198;6.824;2023-09-18T10:28:47;-22170.06;;;33.23;50.01
19890;BME280;10107;51.198;6.824;2023-09-18T10:32:54;-22174.38;;;33.41;48.13
19890;BME280;10107;51.198;6.824;2023-09-18T10:36:58;-22183.28;;;33.77;47.96
19890;BME280;10107;51.198;6.824;2023-09-18T10:41:01;-22169.44;;;33.21;48.04
19890;BME280;10107;51.198;6.824;2023-09-18T10:45:05;-22196.72;;;34.31;45.31
19890;BME280;10107;51.198;6.824;2023-09-18T10:49:11;-22186.81;;;33.91;44.40
19890;BME280;10107;51.198;6.824;2023-09-18T10:53:13;-22178.19;;;33.56;44.10
19890;BME280;10107;51.198;6.824;2023-09-18T10:57:15;-22175.91;;;33.47;44.08
19890;BME280;10107;51.198;6.824;2023-09-18T11:01:16;-22183.03;;;33.76;43.80
19890;BME280;10107;51.198;6.824;2023-09-18T11:05:33;-22201.28;;;34.49;43.22
19890;BME280;10107;51.198;6.824;2023-09-18T11:09:41;-22184.16;;;33.80;44.18
19890;BME280;10107;51.198;6.824;2023-09-18T11:13:43;-22172.34;;;33.32;44.09
19890;BME280;10107;51.198;6.824;2023-09-18T11:17:51;-22129.59;;;31.60;48.39
19890;BME280;10107;51.198;6.824;2023-09-18T11:22:07;-22150.63;;;32.45;47.84
19890;BME280;10107;51.198;6.824;2023-09-18T11:26:10;-22177.19;;;33.52;44.09
19890;BME280;10107;51.198;6.824;2023-09-18T11:30:12;-22164.59;;;33.01;44.51
19890;BME280;10107;51.198;6.824;2023-09-18T11:34:15;-22143.09;;;32.14;46.22
19890;BME280;10107;51.198;6.824;2023-09-18T11:38:18;-22099.09;;;30.37;50.77
19890;BME280;10107;51.198;6.824;2023-09-18T11:42:21;-22052.50;;;28.51;56.93
19890;BME280;10107;51.198;6.824;2023-09-18T11:46:23;-22041.72;;;28.08;60.07
19890;BME280;10107;51.198;6.824;2023-09-18T11:50:25;-22115.06;;;31.02;52.64
19890;BME280;10107;51.198;6.824;2023-09-18T11:54:32;-22155.84;;;32.66;44.94
19890;BME280;10107;51.198;6.824;2023-09-18T11:58:44;-22179.84;;;33.63;42.89
19890;BME280;10107;51.198;6.824;2023-09-18T12:02:45;-22184.69;;;33.82;42.59
19890;BME280;10107;51.198;6.824;2023-09-18T12:06:49;-22156.09;;;32.67;44.46
19890;BME280;10107;51.198;6.824;2023-09-18T12:10:51;-22152.28;;;32.51;44.57
19890;BME280;10107;51.198;6.824;2023-09-18T12:14:53;-22137.13;;;31.90;46.26
19890;BME280;10107;51.198;6.824;2023-09-18T12:18:54;-22129.09;;;31.58;45.15
19890;BME280;10107;51.198;6.824;2023-09-18T12:22:57;-22144.63;;;32.21;44.74
19890;BME280;10107;51.198;6.824;2023-09-18T12:26:59;-22157.50;;;32.72;43.22
19890;BME280;10107;51.198;6.824;2023-09-18T12:31:01;-22141.19;;;32.07;43.26
19890;BME280;10107;51.198;6.824;2023-09-18T12:35:05;-22135.97;;;31.86;44.72
19890;BME280;10107;51.198;6.824;2023-09-18T12:39:07;-22137.63;;;31.92;44.20
19890;BME280;10107;51.198;6.824;2023-09-18T12:43:10;-22125.53;;;31.44;45.31
19890;BME280;10107;51.198;6.824;2023-09-18T12:47:12;-22081.44;;;29.67;49.32
19890;BME280;10107;51.198;6.824;2023-09-18T12:51:14;-22089.38;;;29.98;47.61
19890;BME280;10107;51.198;6.824;2023-09-18T12:55:20;-22087.59;;;29.91;48.17
19890;BME280;10107;51.198;6.824;2023-09-18T12:59:23;-22071.22;;;29.26;48.84
19890;BME280;10107;51.198;6.824;2023-09-18T13:03:24;-22057.75;;;28.72;51.04
19890;BME280;10107;51.198;6.824;2023-09-18T13:07:26;-22049.41;;;28.38;51.13
19890;BME280;10107;51.198;6.824;2023-09-18T13:11:27;-22034.91;;;27.80;53.33
19890;BME280;10107;51.198;6.824;2023-09-18T13:15:30;-22031.31;;;27.66;54.20
19890;BME280;10107;51.198;6.824;2023-09-18T13:19:32;-22032.47;;;27.71;55.24
19890;BME280;10107;51.198;6.824;2023-09-18T13:23:33;-22024.13;;;27.37;57.29
19890;BME280;10107;51.198;6.824;2023-09-18T13:27:34;-22018.31;;;27.14;58.02
19890;BME280;10107;51.198;6.824;2023-09-18T13:31:37;-22017.28;;;27.10;57.32
19890;BME280;10107;51.198;6.824;2023-09-18T13:35:39;-22015.88;;;27.04;57.81
19890;BME280;10107;51.198;6.824;2023-09-18T13:39:41;-22015.88;;;27.04;57.36
19890;BME280;10107;51.198;6.824;2023-09-18T13:43:42;-22008.94;;;26.77;56.53
19890;BME280;10107;51.198;6.824;2023-09-18T13:47:46;-22006.75;;;26.68;57.96
19890;BME280;10107;51.198;6.824;2023-09-18T13:51:49;-22001.47;;;26.47;58.16
19890;BME280;10107;51.198;6.824;2023-09-18T13:55:51;-21998.50;;;26.35;57.17
19890;BME280;10107;51.198;6.824;2023-09-18T13:59:52;-21995.53;;;26.23;58.40
19890;BME280;10107;51.198;6.824;2023-09-18T14:03:55;-21995.94;;;26.25;58.61
19890;BME280;10107;51.198;6.824;2023-09-18T14:07:56;-21994.13;;;26.18;56.77
19890;BME280;10107;51.198;6.824;2023-09-18T14:12:00;-21993.22;;;26.14;57.47
19890;BME280;10107;51.198;6.824;2023-09-18T14:16:01;-21993.59;;;26.16;57.22
19890;BME280;10107;51.198;6.824;2023-09-18T14:20:05;-21992.44;;;26.11;58.66
19890;BME280;10107;51.198;6.824;2023-09-18T14:24:07;-21992.56;;;26.12;57.11
19890;BME280;10107;51.198;6.824;2023-09-18T14:28:09;-21989.09;;;25.98;56.88
19890;BME280;10107;51.198;6.824;2023-09-18T14:32:11;-21989.09;;;25.98;55.52
19890;BME280;10107;51.198;6.824;2023-09-18T14:36:13;-21989.34;;;25.99;55.23
19890;BME280;10107;51.198;6.824;2023-09-18T14:40:16;-21985.34;;;25.83;56.39
19890;BME280;10107;51.198;6.824;2023-09-18T14:44:17;-21982.13;;;25.70;56.89
19890;BME280;10107;51.198;6.824;2023-09-18T14:48:19;-21982.66;;;25.72;59.10
19890;BME280;10107;51.198;6.824;2023-09-18T14:52:22;-21983.28;;;25.75;57.13
19890;BME280;10107;51.198;6.824;2023-09-18T14:56:25;-21983.69;;;25.76;57.54
19890;BME280;10107;51.198;6.824;2023-09-18T15:00:27;-21984.56;;;25.80;57.89
19890;BME280;10107;51.198;6.824;2023-09-18T15:04:48;-21980.59;;;25.64;57.46
19890;BME280;10107;51.198;6.824;2023-09-18T15:08:51;-21978.91;;;25.57;58.90
19890;BME280;10107;51.198;6.824;2023-09-18T15:12:52;-21976.19;;;25.46;56.26
19890;BME280;10107;51.198;6.824;2023-09-18T15:16:54;-21972.84;;;25.33;56.90
19890;BME280;10107;51.198;6.824;2023-09-18T15:20:56;-21971.41;;;25.27;56.58
19890;BME280;10107;51.198;6.824;2023-09-18T15:24:59;-21970.25;;;25.23;56.86
19890;BME280;10107;51.198;6.824;2023-09-18T15:29:01;-21967.41;;;25.12;57.67
19890;BME280;10107;51.198;6.824;2023-09-18T15:33:03;-21965.47;;;25.04;57.67
19890;BME280;10107;51.198;6.824;2023-09-18T15:37:05;-21964.69;;;25.01;58.80
19890;BME280;10107;51.198;6.824;2023-09-18T15:41:08;-21963.66;;;24.97;58.38
19890;BME280;10107;51.198;6.824;2023-09-18T15:45:09;-21963.03;;;24.94;58.96
19890;BME280;10107;51.198;6.824;2023-09-18T15:49:11;-21967.16;;;25.10;58.90
19890;BME280;10107;51.198;6.824;2023-09-18T15:53:13;-21969.75;;;25.21;58.08
19890;BME280;10107;51.198;6.824;2023-09-18T15:57:16;-21969.47;;;25.20;58.84
19890;BME280;10107;51.198;6.824;2023-09-18T16:01:18;-21967.94;;;25.14;58.62
19890;BME280;10107;51.198;6.824;2023-09-18T16:05:19;-21964.84;;;25.01;59.11
19890;BME280;10107;51.198;6.824;2023-09-18T16:09:25;-21963.28;;;24.95;59.21
19890;BME280;10107;51.198;6.824;2023-09-18T16:13:28;-21964.19;;;24.99;59.77
19890;BME280;10107;51.198;6.824;2023-09-18T16:17:29;-21966.38;;;25.07;57.19
19890;BME280;10107;51.198;6.824;2023-09-18T16:21:31;-21964.56;;;25.00;57.10
19890;BME280;10107;51.198;6.824;2023-09-18T16:25:32;-21962.13;;;24.90;58.87
19890;BME280;10107;51.198;6.824;2023-09-18T16:29:35;-21956.31;;;24.67;58.79
19890;BME280;10107;51.198;6.824;2023-09-18T16:33:36;-21952.31;;;24.52;58.87
19890;BME280;10107;51.198;6.824;2023-09-18T16:37:38;-21952.56;;;24.53;60.62
19890;BME280;10107;51.198;6.824;2023-09-18T16:41:41;-21952.56;;;24.53;60.15
19890;BME280;10107;51.198;6.824;2023-09-18T16:45:44;-21949.44;;;24.40;61.05
19890;BME280;10107;51.198;6.824;2023-09-18T16:49:47;-21944.53;;;24.21;61.64
19890;BME280;10107;51.198;6.824;2023-09-18T16:53:49;-21941.03;;;24.07;62.69
19890;BME280;10107;51.198;6.824;2023-09-18T16:57:53;-21935.47;;;23.85;63.97
19890;BME280;10107;51.198;6.824;2023-09-18T17:01:57;-21931.19;;;23.68;63.90
19890;BME280;10107;51.198;6.824;2023-09-18T17:06:01;-21929.25;;;23.60;64.00
19890;BME280;10107;51.198;6.824;2023-09-18T17:10:02;-21926.94;;;23.51;64.23
19890;BME280;10107;51.198;6.824;2023-09-18T17:14:04;-21924.72;;;23.42;65.52
19890;BME280;10107;51.198;6.824;2023-09-18T17:18:07;-21923.56;;;23.38;66.13
19890;BME280;10107;51.198;6.824;2023-09-18T17:22:10;-21922.66;;;23.34;66.77
19890;BME280;10107;51.198;6.824;2023-09-18T17:26:12;-21920.97;;;23.27;68.13
19890;BME280;10107;51.198;6.824;2023-09-18T17:30:13;-21918.75;;;23.19;68.50
19890;BME280;10107;51.198;6.824;2023-09-18T17:34:16;-21916.44;;;23.09;70.21
19890;BME280;10107;51.198;6.824;2023-09-18T17:38:18;-21914.63;;;23.02;71.08
19890;BME280;10107;51.198;6.824;2023-09-18T17:42:19;-21913.44;;;22.98;72.31
19890;BME280;10107;51.198;6.824;2023-09-18T17:46:21;-21912.53;;;22.94;69.73
19890;BME280;10107;51.198;6.824;2023-09-18T17:50:23;-21898.16;;;22.37;62.29
19890;BME280;10107;51.198;6.824;2023-09-18T17:54:25;-21880.34;;;21.67;73.59
19890;BME280;10107;51.198;6.824;2023-09-18T17:58:26;-21852.38;;;20.56;93.62
19890;BME280;10107;51.198;6.824;2023-09-18T18:02:28;-21829.69;;;19.67;100.00
19890;BME280;10107;51.198;6.824;2023-09-18T18:06:32;-21811.03;;;18.94;100.00
19890;BME280;10107;51.198;6.824;2023-09-18T18:10:33;-21801.59;;;18.57;100.00
19890;BME280;10107;51.198;6.824;2023-09-18T18:14:35;-21796.13;;;18.35;100.00
19890;BME280;10107;51.198;6.824;2023-09-18T18:18:37;-21793.09;;;18.24;100.00
19890;BME280;10107;51.198;6.824;2023-09-18T18:22:40;-21790.88;;;18.15;100.00
19890;BME280;10107;51.198;6.824;2023-09-18T18:26:41;-21788.66;;;18.06;100.00
19890;BME280;10107;51.198;6.824;2023-09-18T18:30:42;-21783.94;;;17.88;100.00
19890;BME280;10107;51.198;6.824;2023-09-18T18:34:44;-21782.78;;;17.83;100.00
19890;BME280;10107;51.198;6.824;2023-09-18T18:38:47;-21777.94;;;17.64;100.00
19890;BME280;10107;51.198;6.824;2023-09-18T18:42:49;-21776.09;;;17.57;100.00
19890;BME280;10107;51.198;6.824;2023-09-18T18:46:52;-21775.19;;;17.53;100.00
19890;BME280;10107;51.198;6.824;2023-09-18T18:50:59;-21774.00;;;17.49;100.00
19890;BME280;10107;51.198;6.824;2023-09-18T18:55:01;-21775.97;;;17.56;100.00
19890;BME280;10107;51.198;6.824;2023-09-18T18:59:04;-21776.75;;;17.59;100.00
19890;BME280;10107;51.198;6.824;2023-09-18T19:03:06;-21775.44;;;17.54;100.00
19890;BME280;10107;51.198;6.824;2023-09-18T19:07:09;-21774.41;;;17.50;100.00
19890;BME280;10107;51.198;6.824;2023-09-18T19:11:14;-21774.91;;;17.52;100.00
19890;BME280;10107;51.198;6.824;2023-09-18T19:15:16;-21775.31;;;17.54;100.00
19890;BME280;10107;51.198;6.824;2023-09-18T19:19:20;-21775.56;;;17.55;100.00
19890;BME280;10107;51.198;6.824;2023-09-18T19:23:21;-21772.56;;;17.43;100.00
19890;BME280;10107;51.198;6.824;2023-09-18T19:27:24;-21772.16;;;17.41;100.00
19890;BME280;10107;51.198;6.824;2023-09-18T19:31:26;-21770.06;;;17.33;100.00
19890;BME280;10107;51.198;6.824;2023-09-18T19:35:27;-21768.91;;;17.29;100.00
19890;BME280;10107;51.198;6.824;2023-09-18T19:39:29;-21768.50;;;17.27;100.00
19890;BME280;10107;51.198;6.824;2023-09-18T19:43:33;-21769.56;;;17.31;100.00
19890;BME280;10107;51.198;6.824;2023-09-18T19:47:34;-21770.47;;;17.35;100.00
19890;BME280;10107;51.198;6.824;2023-09-18T19:51:36;-21769.81;;;17.32;100.00
19890;BME280;10107;51.198;6.824;2023-09-18T19:55:38;-21770.22;;;17.34;100.00
19890;BME280;10107;51.198;6.824;2023-09-18T19:59:41;-21769.41;;;17.31;100.00
19890;BME280;10107;51.198;6.824;2023-09-18T20:03:42;-21771.00;;;17.37;100.00
19890;BME280;10107;51.198;6.824;2023-09-18T20:07:44;-21772.56;;;17.43;100.00
19890;BME280;10107;51.198;6.824;2023-09-18T20:11:45;-21770.59;;;17.35;100.00
19890;BME280;10107;51.198;6.824;2023-09-18T20:15:48;-21769.16;;;17.30;100.00
19890;BME280;10107;51.198;6.824;2023-09-18T20:19:50;-21767.06;;;17.21;100.00
19890;BME280;10107;51.198;6.824;2023-09-18T20:23:51;-21768.63;;;17.28;100.00
19890;BME280;10107;51.198;6.824;2023-09-18T20:27:53;-21769.41;;;17.31;100.00
19890;BME280;10107;51.198;6.824;2023-09-18T20:31:57;-21767.31;;;17.22;100.00
19890;BME280;10107;51.198;6.824;2023-09-18T20:35:58;-21767.59;;;17.24;100.00
19890;BME280;10107;51.198;6.824;2023-09-18T20:40:00;-21767.31;;;17.22;100.00
19890;BME280;10107;51.198;6.824;2023-09-18T20:44:01;-21769.16;;;17.30;100.00
19890;BME280;10107;51.198;6.824;2023-09-18T20:48:05;-21769.03;;;17.29;100.00
19890;BME280;10107;51.198;6.824;2023-09-18T20:52:07;-21772.03;;;17.41;100.00
19890;BME280;10107;51.198;6.824;2023-09-18T20:56:09;-21773.75;;;17.48;100.00
19890;BME280;10107;51.198;6.824;2023-09-18T21:00:11;-21776.63;;;17.59;100.00